Pulcifer, Wisconsin
Current Conditions -  °F | °C
As of 12:35 PM on Thursday 30 Oct 2014 (Local Time) from KEZS Reporting Station
Overcast Overcast  
Wind Chill: 41°   Ceiling: 8500
Heat Index: 44°   Visibility: 10mi
Dew Point: 35°   Wind: 6mph
Humidity: 70%   Direction: 270°W
Pressure: 30.07"   Gusts: NA
Location:  44.9109°N, 88.3543°W
Report Text: KEZS 301735Z AUTO 27005KT 10SM OVC085 07/02 A3007 RMK AO2 T00690017
Loading
Personal Weather Stations






























Interactive Weather Map
Tropical Storm Tracking
New forecast layout! Learn more

10-Day Weather Forecast

Advertisements
Track Severe Weather on mobile